sensor_id;sensor_type;location;lat;lon;timestamp;P1;durP1;ratioP1;P2;durP2;ratioP2
69256;SDS011;56376;53.356;-1.748;2023-02-12T00:02:25;4.47;;;2.10;;
69256;SDS011;56376;53.356;-1.748;2023-02-12T00:04:51;5.03;;;2.60;;
69256;SDS011;56376;53.356;-1.748;2023-02-12T00:07:16;6.28;;;2.95;;
69256;SDS011;56376;53.356;-1.748;2023-02-12T00:09:42;6.27;;;3.70;;
69256;SDS011;56376;53.356;-1.748;2023-02-12T00:12:08;5.53;;;3.13;;
69256;SDS011;56376;53.356;-1.748;2023-02-12T00:14:33;5.87;;;3.40;;
69256;SDS011;56376;53.356;-1.748;2023-02-12T00:17:00;6.07;;;3.70;;
69256;SDS011;56376;53.356;-1.748;2023-02-12T00:19:25;5.97;;;3.40;;
69256;SDS011;56376;53.356;-1.748;2023-02-12T00:21:51;5.23;;;3.67;;
69256;SDS011;56376;53.356;-1.748;2023-02-12T00:24:16;5.80;;;4.00;;
69256;SDS011;56376;53.356;-1.748;2023-02-12T00:26:41;7.03;;;4.03;;
69256;SDS011;56376;53.356;-1.748;2023-02-12T00:29:08;8.05;;;4.03;;
69256;SDS011;56376;53.356;-1.748;2023-02-12T00:31:34;9.30;;;4.40;;
69256;SDS011;56376;53.356;-1.748;2023-02-12T00:33:59;6.43;;;3.70;;
69256;SDS011;56376;53.356;-1.748;2023-02-12T00:36:26;5.10;;;3.53;;
69256;SDS011;56376;53.356;-1.748;2023-02-12T00:38:53;6.90;;;3.67;;
69256;SDS011;56376;53.356;-1.748;2023-02-12T00:41:20;4.87;;;3.40;;
69256;SDS011;56376;53.356;-1.748;2023-02-12T00:43:46;4.37;;;3.10;;
69256;SDS011;56376;53.356;-1.748;2023-02-12T00:46:12;4.90;;;3.40;;
69256;SDS011;56376;53.356;-1.748;2023-02-12T00:48:38;5.57;;;3.40;;
69256;SDS011;56376;53.356;-1.748;2023-02-12T00:51:04;6.27;;;3.97;;
69256;SDS011;56376;53.356;-1.748;2023-02-12T00:53:29;5.90;;;3.20;;
69256;SDS011;56376;53.356;-1.748;2023-02-12T00:55:55;4.20;;;3.80;;
69256;SDS011;56376;53.356;-1.748;2023-02-12T00:58:21;4.83;;;2.73;;
69256;SDS011;56376;53.356;-1.748;2023-02-12T01:00:47;4.73;;;2.90;;
69256;SDS011;56376;53.356;-1.748;2023-02-12T01:03:13;3.53;;;2.13;;
69256;SDS011;56376;53.356;-1.748;2023-02-12T01:05:38;5.73;;;2.63;;
69256;SDS011;56376;53.356;-1.748;2023-02-12T01:08:04;3.07;;;2.17;;
69256;SDS011;56376;53.356;-1.748;2023-02-12T01:10:29;4.33;;;2.60;;
69256;SDS011;56376;53.356;-1.748;2023-02-12T01:12:55;3.80;;;3.07;;
69256;SDS011;56376;53.356;-1.748;2023-02-12T01:15:21;3.13;;;2.60;;
69256;SDS011;56376;53.356;-1.748;2023-02-12T01:17:50;4.23;;;2.90;;
69256;SDS011;56376;53.356;-1.748;2023-02-12T01:20:17;4.73;;;3.17;;
69256;SDS011;56376;53.356;-1.748;2023-02-12T01:22:44;3.67;;;3.03;;
69256;SDS011;56376;53.356;-1.748;2023-02-12T01:25:09;5.47;;;3.60;;
69256;SDS011;56376;53.356;-1.748;2023-02-12T01:27:35;4.67;;;3.53;;
69256;SDS011;56376;53.356;-1.748;2023-02-12T01:30:00;7.03;;;3.47;;
69256;SDS011;56376;53.356;-1.748;2023-02-12T01:32:26;4.67;;;3.80;;
69256;SDS011;56376;53.356;-1.748;2023-02-12T01:34:52;8.13;;;4.50;;
69256;SDS011;56376;53.356;-1.748;2023-02-12T01:37:17;8.80;;;6.27;;
69256;SDS011;56376;53.356;-1.748;2023-02-12T01:39:42;7.33;;;5.10;;
69256;SDS011;56376;53.356;-1.748;2023-02-12T01:42:14;10.93;;;5.27;;
69256;SDS011;56376;53.356;-1.748;2023-02-12T01:44:44;6.83;;;5.20;;
69256;SDS011;56376;53.356;-1.748;2023-02-12T01:47:29;8.60;;;4.93;;
69256;SDS011;56376;53.356;-1.748;2023-02-12T01:49:55;5.43;;;3.73;;
69256;SDS011;56376;53.356;-1.748;2023-02-12T01:52:22;5.27;;;4.00;;
69256;SDS011;56376;53.356;-1.748;2023-02-12T01:54:53;6.10;;;3.87;;
69256;SDS011;56376;53.356;-1.748;2023-02-12T01:57:22;6.13;;;4.17;;
69256;SDS011;56376;53.356;-1.748;2023-02-12T01:59:49;6.90;;;4.53;;
69256;SDS011;56376;53.356;-1.748;2023-02-12T02:02:18;5.70;;;4.00;;
69256;SDS011;56376;53.356;-1.748;2023-02-12T02:04:45;4.70;;;3.80;;
69256;SDS011;56376;53.356;-1.748;2023-02-12T02:07:14;7.07;;;5.07;;
69256;SDS011;56376;53.356;-1.748;2023-02-12T02:09:40;9.57;;;5.40;;
69256;SDS011;56376;53.356;-1.748;2023-02-12T02:12:06;5.87;;;4.37;;
69256;SDS011;56376;53.356;-1.748;2023-02-12T02:14:52;6.18;;;4.15;;
69256;SDS011;56376;53.356;-1.748;2023-02-12T02:17:41;4.77;;;3.83;;
69256;SDS011;56376;53.356;-1.748;2023-02-12T02:28:32;5.43;;;3.87;;
69256;SDS011;56376;53.356;-1.748;2023-02-12T02:33:56;5.13;;;4.10;;
69256;SDS011;56376;53.356;-1.748;2023-02-12T02:39:14;4.70;;;3.70;;
69256;SDS011;56376;53.356;-1.748;2023-02-12T02:41:48;5.40;;;3.40;;
69256;SDS011;56376;53.356;-1.748;2023-02-12T02:44:26;4.43;;;3.43;;
69256;SDS011;56376;53.356;-1.748;2023-02-12T02:46:57;3.93;;;2.90;;
69256;SDS011;56376;53.356;-1.748;2023-02-12T02:49:28;4.00;;;3.43;;
69256;SDS011;56376;53.356;-1.748;2023-02-12T02:52:01;4.47;;;3.63;;
69256;SDS011;56376;53.356;-1.748;2023-02-12T02:54:36;4.10;;;3.70;;
69256;SDS011;56376;53.356;-1.748;2023-02-12T02:57:15;4.37;;;3.27;;
69256;SDS011;56376;53.356;-1.748;2023-02-12T02:59:45;3.80;;;3.37;;
69256;SDS011;56376;53.356;-1.748;2023-02-12T03:02:17;4.03;;;3.27;;
69256;SDS011;56376;53.356;-1.748;2023-02-12T03:04:51;4.37;;;3.40;;
69256;SDS011;56376;53.356;-1.748;2023-02-12T03:07:27;4.10;;;3.23;;
69256;SDS011;56376;53.356;-1.748;2023-02-12T03:10:01;3.53;;;3.10;;
69256;SDS011;56376;53.356;-1.748;2023-02-12T03:12:32;5.75;;;3.53;;
69256;SDS011;56376;53.356;-1.748;2023-02-12T03:15:25;3.70;;;3.27;;
69256;SDS011;56376;53.356;-1.748;2023-02-12T03:17:52;6.60;;;4.33;;
69256;SDS011;56376;53.356;-1.748;2023-02-12T03:20:23;4.70;;;3.93;;
69256;SDS011;56376;53.356;-1.748;2023-02-12T03:23:06;4.60;;;3.87;;
69256;SDS011;56376;53.356;-1.748;2023-02-12T03:25:42;4.80;;;3.73;;
69256;SDS011;56376;53.356;-1.748;2023-02-12T03:33:15;4.67;;;4.00;;
69256;SDS011;56376;53.356;-1.748;2023-02-12T03:36:00;5.30;;;4.47;;
69256;SDS011;56376;53.356;-1.748;2023-02-12T03:38:42;4.90;;;4.20;;
69256;SDS011;56376;53.356;-1.748;2023-02-12T03:41:13;5.97;;;4.03;;
69256;SDS011;56376;53.356;-1.748;2023-02-12T03:43:44;4.83;;;4.00;;
69256;SDS011;56376;53.356;-1.748;2023-02-12T03:48:55;4.93;;;4.53;;
69256;SDS011;56376;53.356;-1.748;2023-02-12T03:51:33;6.23;;;4.00;;
69256;SDS011;56376;53.356;-1.748;2023-02-12T03:54:00;5.17;;;3.80;;
69256;SDS011;56376;53.356;-1.748;2023-02-12T03:56:32;5.67;;;4.50;;
69256;SDS011;56376;53.356;-1.748;2023-02-12T03:59:04;7.43;;;4.50;;
69256;SDS011;56376;53.356;-1.748;2023-02-12T04:01:30;7.13;;;3.90;;
69256;SDS011;56376;53.356;-1.748;2023-02-12T04:03:58;6.17;;;4.13;;
69256;SDS011;56376;53.356;-1.748;2023-02-12T04:06:27;4.33;;;3.60;;
69256;SDS011;56376;53.356;-1.748;2023-02-12T04:08:54;4.40;;;3.73;;
69256;SDS011;56376;53.356;-1.748;2023-02-12T04:11:39;4.07;;;3.50;;
69256;SDS011;56376;53.356;-1.748;2023-02-12T04:17:02;4.17;;;3.23;;
69256;SDS011;56376;53.356;-1.748;2023-02-12T04:19:32;5.33;;;3.57;;
69256;SDS011;56376;53.356;-1.748;2023-02-12T04:22:25;4.40;;;3.90;;
69256;SDS011;56376;53.356;-1.748;2023-02-12T04:25:20;4.10;;;3.47;;
69256;SDS011;56376;53.356;-1.748;2023-02-12T04:27:58;5.40;;;4.00;;
69256;SDS011;56376;53.356;-1.748;2023-02-12T04:30:33;6.20;;;4.33;;
69256;SDS011;56376;53.356;-1.748;2023-02-12T04:33:05;5.23;;;3.97;;
69256;SDS011;56376;53.356;-1.748;2023-02-12T04:35:41;5.13;;;4.10;;
69256;SDS011;56376;53.356;-1.748;2023-02-12T04:38:16;5.87;;;3.80;;
69256;SDS011;56376;53.356;-1.748;2023-02-12T04:40:47;4.97;;;4.07;;
69256;SDS011;56376;53.356;-1.748;2023-02-12T04:43:14;5.00;;;4.00;;
69256;SDS011;56376;53.356;-1.748;2023-02-12T04:45:49;4.37;;;3.93;;
69256;SDS011;56376;53.356;-1.748;2023-02-12T04:48:15;4.27;;;3.80;;
69256;SDS011;56376;53.356;-1.748;2023-02-12T04:50:41;5.47;;;4.37;;
69256;SDS011;56376;53.356;-1.748;2023-02-12T04:53:08;4.13;;;3.57;;
69256;SDS011;56376;53.356;-1.748;2023-02-12T04:55:34;5.43;;;3.67;;
69256;SDS011;56376;53.356;-1.748;2023-02-12T04:57:59;4.67;;;3.83;;
69256;SDS011;56376;53.356;-1.748;2023-02-12T05:00:25;3.80;;;3.40;;
69256;SDS011;56376;53.356;-1.748;2023-02-12T05:02:51;4.50;;;3.80;;
69256;SDS011;56376;53.356;-1.748;2023-02-12T05:05:16;4.70;;;4.20;;
69256;SDS011;56376;53.356;-1.748;2023-02-12T05:07:42;7.00;;;4.53;;
69256;SDS011;56376;53.356;-1.748;2023-02-12T05:10:07;4.23;;;3.83;;
69256;SDS011;56376;53.356;-1.748;2023-02-12T05:12:33;5.60;;;4.03;;
69256;SDS011;56376;53.356;-1.748;2023-02-12T05:14:58;5.30;;;3.90;;
69256;SDS011;56376;53.356;-1.748;2023-02-12T05:17:24;4.37;;;3.57;;
69256;SDS011;56376;53.356;-1.748;2023-02-12T05:19:49;5.90;;;4.03;;
69256;SDS011;56376;53.356;-1.748;2023-02-12T05:22:15;4.10;;;3.40;;
69256;SDS011;56376;53.356;-1.748;2023-02-12T05:24:41;6.10;;;4.20;;
69256;SDS011;56376;53.356;-1.748;2023-02-12T05:27:06;4.47;;;3.70;;
69256;SDS011;56376;53.356;-1.748;2023-02-12T05:29:33;5.37;;;3.93;;
69256;SDS011;56376;53.356;-1.748;2023-02-12T05:31:59;4.43;;;3.67;;
69256;SDS011;56376;53.356;-1.748;2023-02-12T05:34:25;5.17;;;3.93;;
69256;SDS011;56376;53.356;-1.748;2023-02-12T05:36:51;4.63;;;4.13;;
69256;SDS011;56376;53.356;-1.748;2023-02-12T05:39:16;5.43;;;4.10;;
69256;SDS011;56376;53.356;-1.748;2023-02-12T05:41:41;5.87;;;4.90;;
69256;SDS011;56376;53.356;-1.748;2023-02-12T05:44:07;6.03;;;4.53;;
69256;SDS011;56376;53.356;-1.748;2023-02-12T05:46:35;5.63;;;4.47;;
69256;SDS011;56376;53.356;-1.748;2023-02-12T05:49:00;5.93;;;4.33;;
69256;SDS011;56376;53.356;-1.748;2023-02-12T05:51:26;6.17;;;4.90;;
69256;SDS011;56376;53.356;-1.748;2023-02-12T05:53:56;5.67;;;4.70;;
69256;SDS011;56376;53.356;-1.748;2023-02-12T05:56:24;7.03;;;5.10;;
69256;SDS011;56376;53.356;-1.748;2023-02-12T05:59:07;5.37;;;4.57;;
69256;SDS011;56376;53.356;-1.748;2023-02-12T06:01:38;6.93;;;4.70;;
69256;SDS011;56376;53.356;-1.748;2023-02-12T06:04:06;4.67;;;4.00;;
69256;SDS011;56376;53.356;-1.748;2023-02-12T06:06:33;7.07;;;4.50;;
69256;SDS011;56376;53.356;-1.748;2023-02-12T06:08:59;5.73;;;4.27;;
69256;SDS011;56376;53.356;-1.748;2023-02-12T06:11:25;6.07;;;4.40;;
69256;SDS011;56376;53.356;-1.748;2023-02-12T06:13:51;5.27;;;4.07;;
69256;SDS011;56376;53.356;-1.748;2023-02-12T06:16:20;6.07;;;4.50;;
69256;SDS011;56376;53.356;-1.748;2023-02-12T06:18:46;5.80;;;4.53;;
69256;SDS011;56376;53.356;-1.748;2023-02-12T06:21:12;5.57;;;4.10;;
69256;SDS011;56376;53.356;-1.748;2023-02-12T06:23:37;5.77;;;4.27;;
69256;SDS011;56376;53.356;-1.748;2023-02-12T06:26:03;5.13;;;4.63;;
69256;SDS011;56376;53.356;-1.748;2023-02-12T06:28:28;5.17;;;4.53;;
69256;SDS011;56376;53.356;-1.748;2023-02-12T06:30:54;4.63;;;3.90;;
69256;SDS011;56376;53.356;-1.748;2023-02-12T06:33:19;5.73;;;4.00;;
69256;SDS011;56376;53.356;-1.748;2023-02-12T06:35:45;4.87;;;4.30;;
69256;SDS011;56376;53.356;-1.748;2023-02-12T06:38:10;5.20;;;4.03;;
69256;SDS011;56376;53.356;-1.748;2023-02-12T06:40:36;7.37;;;5.03;;
69256;SDS011;56376;53.356;-1.748;2023-02-12T06:43:01;5.23;;;4.37;;
69256;SDS011;56376;53.356;-1.748;2023-02-12T06:45:27;4.73;;;4.10;;
69256;SDS011;56376;53.356;-1.748;2023-02-12T06:47:52;5.00;;;4.03;;
69256;SDS011;56376;53.356;-1.748;2023-02-12T06:50:17;4.97;;;4.37;;
69256;SDS011;56376;53.356;-1.748;2023-02-12T06:52:43;5.63;;;4.30;;
69256;SDS011;56376;53.356;-1.748;2023-02-12T06:55:08;5.57;;;4.53;;
69256;SDS011;56376;53.356;-1.748;2023-02-12T06:57:34;5.57;;;4.50;;
69256;SDS011;56376;53.356;-1.748;2023-02-12T06:59:59;4.90;;;4.40;;
69256;SDS011;56376;53.356;-1.748;2023-02-12T07:02:24;5.47;;;4.43;;
69256;SDS011;56376;53.356;-1.748;2023-02-12T07:04:50;6.63;;;4.20;;
69256;SDS011;56376;53.356;-1.748;2023-02-12T07:07:15;5.10;;;4.60;;
69256;SDS011;56376;53.356;-1.748;2023-02-12T07:09:40;5.40;;;4.40;;
69256;SDS011;56376;53.356;-1.748;2023-02-12T07:12:06;5.83;;;5.27;;
69256;SDS011;56376;53.356;-1.748;2023-02-12T07:14:31;4.40;;;3.90;;
69256;SDS011;56376;53.356;-1.748;2023-02-12T07:16:57;6.20;;;4.33;;
69256;SDS011;56376;53.356;-1.748;2023-02-12T07:19:23;5.67;;;4.00;;
69256;SDS011;56376;53.356;-1.748;2023-02-12T07:21:48;4.80;;;4.30;;
69256;SDS011;56376;53.356;-1.748;2023-02-12T07:24:14;5.13;;;4.30;;
69256;SDS011;56376;53.356;-1.748;2023-02-12T07:26:42;5.07;;;4.30;;
69256;SDS011;56376;53.356;-1.748;2023-02-12T07:29:07;4.23;;;3.83;;
69256;SDS011;56376;53.356;-1.748;2023-02-12T07:31:33;5.20;;;4.70;;
69256;SDS011;56376;53.356;-1.748;2023-02-12T07:33:58;4.40;;;4.00;;
69256;SDS011;56376;53.356;-1.748;2023-02-12T07:36:27;6.03;;;4.37;;
69256;SDS011;56376;53.356;-1.748;2023-02-12T07:38:54;4.53;;;4.07;;
69256;SDS011;56376;53.356;-1.748;2023-02-12T07:41:21;4.70;;;4.20;;
69256;SDS011;56376;53.356;-1.748;2023-02-12T07:44:23;4.87;;;3.90;;
69256;SDS011;56376;53.356;-1.748;2023-02-12T07:46:43;5.83;;;4.63;;
69256;SDS011;56376;53.356;-1.748;2023-02-12T07:49:14;5.00;;;4.43;;
69256;SDS011;56376;53.356;-1.748;2023-02-12T07:51:43;4.93;;;4.37;;
69256;SDS011;56376;53.356;-1.748;2023-02-12T07:54:09;4.27;;;3.87;;
69256;SDS011;56376;53.356;-1.748;2023-02-12T07:56:36;6.07;;;3.90;;
69256;SDS011;56376;53.356;-1.748;2023-02-12T07:59:07;5.30;;;4.07;;
69256;SDS011;56376;53.356;-1.748;2023-02-12T08:01:39;6.50;;;4.60;;
69256;SDS011;56376;53.356;-1.748;2023-02-12T08:04:11;5.53;;;4.30;;
69256;SDS011;56376;53.356;-1.748;2023-02-12T08:06:39;4.97;;;3.90;;
69256;SDS011;56376;53.356;-1.748;2023-02-12T08:09:07;5.00;;;4.43;;
69256;SDS011;56376;53.356;-1.748;2023-02-12T08:11:35;5.13;;;4.63;;
69256;SDS011;56376;53.356;-1.748;2023-02-12T08:14:02;5.63;;;4.87;;
69256;SDS011;56376;53.356;-1.748;2023-02-12T08:16:28;4.77;;;4.33;;
69256;SDS011;56376;53.356;-1.748;2023-02-12T08:18:55;5.87;;;4.43;;
69256;SDS011;56376;53.356;-1.748;2023-02-12T08:21:22;5.67;;;4.40;;
69256;SDS011;56376;53.356;-1.748;2023-02-12T08:23:49;5.13;;;4.60;;
69256;SDS011;56376;53.356;-1.748;2023-02-12T08:26:16;5.67;;;4.90;;
69256;SDS011;56376;53.356;-1.748;2023-02-12T08:28:53;5.27;;;4.27;;
69256;SDS011;56376;53.356;-1.748;2023-02-12T08:31:31;5.03;;;3.93;;
69256;SDS011;56376;53.356;-1.748;2023-02-12T08:33:59;4.77;;;4.27;;
69256;SDS011;56376;53.356;-1.748;2023-02-12T08:36:28;7.57;;;5.00;;
69256;SDS011;56376;53.356;-1.748;2023-02-12T08:38:59;6.97;;;5.65;;
69256;SDS011;56376;53.356;-1.748;2023-02-12T08:41:25;7.40;;;5.83;;
69256;SDS011;56376;53.356;-1.748;2023-02-12T08:43:53;7.10;;;6.20;;
69256;SDS011;56376;53.356;-1.748;2023-02-12T08:46:22;7.23;;;6.47;;
69256;SDS011;56376;53.356;-1.748;2023-02-12T08:48:51;8.20;;;6.97;;
69256;SDS011;56376;53.356;-1.748;2023-02-12T08:51:19;7.33;;;6.63;;
69256;SDS011;56376;53.356;-1.748;2023-02-12T08:53:47;7.70;;;6.77;;
69256;SDS011;56376;53.356;-1.748;2023-02-12T08:56:16;8.00;;;6.57;;
69256;SDS011;56376;53.356;-1.748;2023-02-12T08:58:42;6.87;;;5.67;;
69256;SDS011;56376;53.356;-1.748;2023-02-12T09:01:08;7.10;;;5.90;;
69256;SDS011;56376;53.356;-1.748;2023-02-12T09:03:38;6.60;;;5.90;;
69256;SDS011;56376;53.356;-1.748;2023-02-12T09:06:04;7.00;;;6.30;;
69256;SDS011;56376;53.356;-1.748;2023-02-12T09:08:31;8.00;;;7.07;;
69256;SDS011;56376;53.356;-1.748;2023-02-12T09:10:56;6.57;;;5.90;;
69256;SDS011;56376;53.356;-1.748;2023-02-12T09:13:22;7.43;;;6.60;;
69256;SDS011;56376;53.356;-1.748;2023-02-12T09:15:47;7.10;;;6.40;;
69256;SDS011;56376;53.356;-1.748;2023-02-12T09:18:13;8.37;;;6.23;;
69256;SDS011;56376;53.356;-1.748;2023-02-12T09:20:40;7.93;;;6.77;;
69256;SDS011;56376;53.356;-1.748;2023-02-12T09:23:09;7.93;;;6.20;;
69256;SDS011;56376;53.356;-1.748;2023-02-12T09:25:40;6.83;;;6.13;;
69256;SDS011;56376;53.356;-1.748;2023-02-12T09:28:07;9.83;;;7.33;;
69256;SDS011;56376;53.356;-1.748;2023-02-12T09:30:32;7.80;;;7.00;;
69256;SDS011;56376;53.356;-1.748;2023-02-12T09:32:58;9.83;;;7.27;;
69256;SDS011;56376;53.356;-1.748;2023-02-12T09:35:23;9.27;;;7.07;;
69256;SDS011;56376;53.356;-1.748;2023-02-12T09:37:49;9.20;;;8.20;;
69256;SDS011;56376;53.356;-1.748;2023-02-12T09:40:25;11.03;;;7.40;;
69256;SDS011;56376;53.356;-1.748;2023-02-12T09:45:57;10.30;;;7.37;;
69256;SDS011;56376;53.356;-1.748;2023-02-12T09:51:04;12.20;;;8.37;;
69256;SDS011;56376;53.356;-1.748;2023-02-12T09:53:34;8.77;;;7.63;;
69256;SDS011;56376;53.356;-1.748;2023-02-12T09:56:05;13.23;;;9.33;;
69256;SDS011;56376;53.356;-1.748;2023-02-12T09:58:58;10.38;;;8.98;;
69256;SDS011;56376;53.356;-1.748;2023-02-12T10:01:30;12.07;;;9.83;;
69256;SDS011;56376;53.356;-1.748;2023-02-12T10:03:55;10.27;;;9.17;;
69256;SDS011;56376;53.356;-1.748;2023-02-12T10:06:25;10.83;;;9.13;;
69256;SDS011;56376;53.356;-1.748;2023-02-12T10:11:53;10.40;;;9.30;;
69256;SDS011;56376;53.356;-1.748;2023-02-12T10:22:20;11.50;;;9.87;;
69256;SDS011;56376;53.356;-1.748;2023-02-12T10:27:44;10.90;;;9.80;;
69256;SDS011;56376;53.356;-1.748;2023-02-12T10:30:21;12.33;;;10.90;;
69256;SDS011;56376;53.356;-1.748;2023-02-12T10:32:53;15.03;;;13.20;;
69256;SDS011;56376;53.356;-1.748;2023-02-12T10:35:25;13.97;;;12.17;;
69256;SDS011;56376;53.356;-1.748;2023-02-12T10:37:56;13.53;;;11.73;;
69256;SDS011;56376;53.356;-1.748;2023-02-12T10:40:27;14.32;;;12.40;;
69256;SDS011;56376;53.356;-1.748;2023-02-12T10:42:58;14.63;;;12.63;;
69256;SDS011;56376;53.356;-1.748;2023-02-12T10:45:35;18.13;;;14.63;;
69256;SDS011;56376;53.356;-1.748;2023-02-12T10:53:39;14.73;;;12.73;;
69256;SDS011;56376;53.356;-1.748;2023-02-12T11:01:26;15.97;;;14.03;;
69256;SDS011;56376;53.356;-1.748;2023-02-12T11:04:00;14.93;;;12.97;;
69256;SDS011;56376;53.356;-1.748;2023-02-12T11:07:00;13.53;;;12.13;;
69256;SDS011;56376;53.356;-1.748;2023-02-12T11:09:33;13.43;;;11.57;;
69256;SDS011;56376;53.356;-1.748;2023-02-12T11:17:44;14.30;;;11.53;;
69256;SDS011;56376;53.356;-1.748;2023-02-12T11:20:29;14.20;;;11.60;;
69256;SDS011;56376;53.356;-1.748;2023-02-12T11:23:05;12.77;;;11.45;;
69256;SDS011;56376;53.356;-1.748;2023-02-12T11:25:55;13.00;;;10.43;;
69256;SDS011;56376;53.356;-1.748;2023-02-12T11:28:21;12.20;;;10.50;;
69256;SDS011;56376;53.356;-1.748;2023-02-12T11:30:47;11.10;;;9.73;;
69256;SDS011;56376;53.356;-1.748;2023-02-12T11:33:25;9.75;;;8.57;;
69256;SDS011;56376;53.356;-1.748;2023-02-12T11:35:54;11.23;;;9.23;;
69256;SDS011;56376;53.356;-1.748;2023-02-12T11:38:26;10.18;;;9.07;;
69256;SDS011;56376;53.356;-1.748;2023-02-12T11:40:56;11.87;;;9.27;;
69256;SDS011;56376;53.356;-1.748;2023-02-12T11:43:24;9.93;;;8.90;;
69256;SDS011;56376;53.356;-1.748;2023-02-12T11:45:51;9.67;;;8.20;;
69256;SDS011;56376;53.356;-1.748;2023-02-12T11:48:30;9.60;;;7.90;;
69256;SDS011;56376;53.356;-1.748;2023-02-12T11:51:01;9.40;;;8.07;;
69256;SDS011;56376;53.356;-1.748;2023-02-12T11:53:31;11.03;;;8.77;;
69256;SDS011;56376;53.356;-1.748;2023-02-12T11:56:07;9.43;;;8.40;;
69256;SDS011;56376;53.356;-1.748;2023-02-12T11:58:35;12.13;;;9.30;;
69256;SDS011;56376;53.356;-1.748;2023-02-12T12:09:01;8.87;;;7.97;;
69256;SDS011;56376;53.356;-1.748;2023-02-12T12:11:40;10.50;;;8.47;;
69256;SDS011;56376;53.356;-1.748;2023-02-12T12:17:35;8.27;;;7.47;;
69256;SDS011;56376;53.356;-1.748;2023-02-12T12:20:28;12.93;;;10.57;;
69256;SDS011;56376;53.356;-1.748;2023-02-12T12:23:01;11.67;;;10.23;;
69256;SDS011;56376;53.356;-1.748;2023-02-12T12:26:14;10.07;;;7.90;;
69256;SDS011;56376;53.356;-1.748;2023-02-12T12:28:39;9.95;;;8.10;;
69256;SDS011;56376;53.356;-1.748;2023-02-12T12:34:07;9.88;;;8.93;;
69256;SDS011;56376;53.356;-1.748;2023-02-12T13:01:40;12.00;;;10.53;;
69256;SDS011;56376;53.356;-1.748;2023-02-12T13:10:16;10.53;;;9.43;;
69256;SDS011;56376;53.356;-1.748;2023-02-12T13:15:31;8.63;;;7.73;;
69256;SDS011;56376;53.356;-1.748;2023-02-12T13:23:33;9.00;;;8.10;;
69256;SDS011;56376;53.356;-1.748;2023-02-12T13:26:20;10.75;;;9.57;;
69256;SDS011;56376;53.356;-1.748;2023-02-12T13:29:00;10.17;;;8.60;;
69256;SDS011;56376;53.356;-1.748;2023-02-12T13:31:32;12.77;;;11.48;;
69256;SDS011;56376;53.356;-1.748;2023-02-12T13:34:06;11.80;;;10.03;;
69256;SDS011;56376;53.356;-1.748;2023-02-12T13:36:36;13.35;;;11.90;;
69256;SDS011;56376;53.356;-1.748;2023-02-12T13:41:36;12.43;;;11.23;;
69256;SDS011;56376;53.356;-1.748;2023-02-12T13:44:17;12.93;;;11.47;;
69256;SDS011;56376;53.356;-1.748;2023-02-12T13:46:59;11.70;;;10.50;;
69256;SDS011;56376;53.356;-1.748;2023-02-12T13:49:39;10.07;;;8.82;;
69256;SDS011;56376;53.356;-1.748;2023-02-12T13:52:36;10.07;;;9.00;;
69256;SDS011;56376;53.356;-1.748;2023-02-12T13:57:41;8.90;;;8.00;;
69256;SDS011;56376;53.356;-1.748;2023-02-12T14:00:55;12.57;;;10.07;;
69256;SDS011;56376;53.356;-1.748;2023-02-12T14:03:25;10.27;;;9.18;;
69256;SDS011;56376;53.356;-1.748;2023-02-12T14:08:36;9.97;;;8.97;;
69256;SDS011;56376;53.356;-1.748;2023-02-12T14:11:08;10.47;;;8.90;;
69256;SDS011;56376;53.356;-1.748;2023-02-12T14:13:35;9.70;;;8.37;;
69256;SDS011;56376;53.356;-1.748;2023-02-12T14:22:01;18.57;;;15.90;;
69256;SDS011;56376;53.356;-1.748;2023-02-12T14:27:00;15.13;;;12.67;;
69256;SDS011;56376;53.356;-1.748;2023-02-12T14:37:56;12.20;;;11.00;;
69256;SDS011;56376;53.356;-1.748;2023-02-12T14:45:35;14.67;;;12.63;;
69256;SDS011;56376;53.356;-1.748;2023-02-12T14:48:02;12.60;;;11.20;;
69256;SDS011;56376;53.356;-1.748;2023-02-12T14:50:39;12.63;;;11.33;;
69256;SDS011;56376;53.356;-1.748;2023-02-12T14:55:46;12.23;;;11.03;;
69256;SDS011;56376;53.356;-1.748;2023-02-12T14:58:19;12.10;;;10.90;;
69256;SDS011;56376;53.356;-1.748;2023-02-12T15:00:48;12.40;;;11.20;;
69256;SDS011;56376;53.356;-1.748;2023-02-12T15:03:39;12.80;;;11.20;;
69256;SDS011;56376;53.356;-1.748;2023-02-12T15:06:23;13.03;;;11.70;;
69256;SDS011;56376;53.356;-1.748;2023-02-12T15:09:43;12.90;;;11.70;;
69256;SDS011;56376;53.356;-1.748;2023-02-12T15:12:02;13.47;;;11.53;;
69256;SDS011;56376;53.356;-1.748;2023-02-12T15:14:34;13.85;;;12.27;;
69256;SDS011;56376;53.356;-1.748;2023-02-12T15:17:07;12.40;;;11.20;;
69256;SDS011;56376;53.356;-1.748;2023-02-12T15:22:41;13.32;;;12.00;;
69256;SDS011;56376;53.356;-1.748;2023-02-12T15:25:40;14.63;;;12.57;;
69256;SDS011;56376;53.356;-1.748;2023-02-12T15:27:59;14.57;;;13.07;;
69256;SDS011;56376;53.356;-1.748;2023-02-12T15:30:29;15.23;;;13.63;;
69256;SDS011;56376;53.356;-1.748;2023-02-12T15:32:58;14.20;;;12.60;;
69256;SDS011;56376;53.356;-1.748;2023-02-12T15:35:31;14.50;;;13.00;;
69256;SDS011;56376;53.356;-1.748;2023-02-12T15:37:59;16.97;;;14.30;;
69256;SDS011;56376;53.356;-1.748;2023-02-12T15:40:26;14.80;;;13.30;;
69256;SDS011;56376;53.356;-1.748;2023-02-12T15:42:54;13.93;;;12.23;;
69256;SDS011;56376;53.356;-1.748;2023-02-12T15:45:25;12.70;;;11.40;;
69256;SDS011;56376;53.356;-1.748;2023-02-12T15:50:33;14.60;;;13.00;;
69256;SDS011;56376;53.356;-1.748;2023-02-12T15:53:01;14.83;;;13.33;;
69256;SDS011;56376;53.356;-1.748;2023-02-12T15:55:28;13.30;;;11.90;;
69256;SDS011;56376;53.356;-1.748;2023-02-12T15:58:00;14.67;;;13.17;;
69256;SDS011;56376;53.356;-1.748;2023-02-12T16:00:27;13.40;;;11.77;;
69256;SDS011;56376;53.356;-1.748;2023-02-12T16:02:59;13.55;;;12.13;;
69256;SDS011;56376;53.356;-1.748;2023-02-12T16:05:25;14.63;;;13.13;;
69256;SDS011;56376;53.356;-1.748;2023-02-12T16:07:51;12.83;;;11.53;;
69256;SDS011;56376;53.356;-1.748;2023-02-12T16:10:17;14.23;;;12.70;;
69256;SDS011;56376;53.356;-1.748;2023-02-12T16:12:44;12.73;;;10.63;;
69256;SDS011;56376;53.356;-1.748;2023-02-12T16:15:30;12.63;;;11.23;;
69256;SDS011;56376;53.356;-1.748;2023-02-12T16:17:58;12.83;;;11.43;;
69256;SDS011;56376;53.356;-1.748;2023-02-12T16:20:28;11.77;;;10.57;;
69256;SDS011;56376;53.356;-1.748;2023-02-12T16:22:54;11.73;;;10.52;;
69256;SDS011;56376;53.356;-1.748;2023-02-12T16:25:24;11.87;;;10.67;;
69256;SDS011;56376;53.356;-1.748;2023-02-12T16:27:55;13.00;;;11.80;;
69256;SDS011;56376;53.356;-1.748;2023-02-12T16:30:35;11.93;;;10.73;;
69256;SDS011;56376;53.356;-1.748;2023-02-12T16:33:03;12.35;;;11.05;;
69256;SDS011;56376;53.356;-1.748;2023-02-12T16:35:58;13.07;;;11.77;;
69256;SDS011;56376;53.356;-1.748;2023-02-12T16:46:47;12.60;;;11.23;;
69256;SDS011;56376;53.356;-1.748;2023-02-12T16:49:20;15.20;;;12.38;;
69256;SDS011;56376;53.356;-1.748;2023-02-12T16:51:47;15.17;;;13.07;;
69256;SDS011;56376;53.356;-1.748;2023-02-12T16:54:27;14.30;;;12.80;;
69256;SDS011;56376;53.356;-1.748;2023-02-12T16:56:59;15.23;;;13.63;;
69256;SDS011;56376;53.356;-1.748;2023-02-12T16:59:26;14.10;;;12.70;;
69256;SDS011;56376;53.356;-1.748;2023-02-12T17:02:11;14.37;;;12.80;;
69256;SDS011;56376;53.356;-1.748;2023-02-12T17:04:38;13.87;;;12.50;;
69256;SDS011;56376;53.356;-1.748;2023-02-12T17:07:08;13.23;;;11.90;;
69256;SDS011;56376;53.356;-1.748;2023-02-12T17:09:47;13.03;;;11.63;;
69256;SDS011;56376;53.356;-1.748;2023-02-12T17:12:13;12.63;;;11.37;;
69256;SDS011;56376;53.356;-1.748;2023-02-12T17:14:39;12.83;;;11.53;;
69256;SDS011;56376;53.356;-1.748;2023-02-12T17:17:04;13.07;;;11.73;;
69256;SDS011;56376;53.356;-1.748;2023-02-12T17:19:30;12.57;;;11.33;;
69256;SDS011;56376;53.356;-1.748;2023-02-12T17:21:55;12.60;;;11.33;;
69256;SDS011;56376;53.356;-1.748;2023-02-12T17:24:22;11.90;;;10.70;;
69256;SDS011;56376;53.356;-1.748;2023-02-12T17:26:50;13.57;;;12.23;;